CDT,Max TemperatureF,Mean TemperatureF,Min TemperatureF,Max Dew PointF,MeanDew PointF,Min DewpointF,Max Humidity, Mean Humidity, Min Humidity, Max Sea Level PressureIn, Mean Sea Level PressureIn, Min Sea Level PressureIn, Max VisibilityMiles, Mean VisibilityMiles, Min VisibilityMiles, Max Wind SpeedMPH, Mean Wind SpeedMPH, Max Gust SpeedMPH,PrecipitationIn, CloudCover, Events, WindDirDegrees
2013-5-1,71,68,66,71,69,66,100,99,94,30.01,29.98,29.91,10,9,2,13,8,22,0.32,5,Rain,84
2013-5-2,79,70,62,73,68,63,100,98,81,30.01,29.94,29.90,10,9,1,18,10,25,0.16,6,Rain-Thunderstorm,79
2013-5-3,69,66,64,70,66,64,100,100,100,29.90,29.83,29.80,10,9,2,14,9,23,0.06,6,Rain,58
2013-5-4,68,60,53,65,59,48,100,93,64,29.92,29.83,29.75,10,10,10,17,9,23,0.09,6,Rain,357
2013-5-5,72,60,47,66,57,46,100,81,65,29.97,29.89,29.85,10,10,10,23,9,36,0.00,2,Rain,283
2013-5-6,68,58,49,59,55,47,94,74,64,30.04,29.98,29.94,10,10,10,17,13,22,0.00,4,,270
2013-5-7,71,64,56,64,61,56,100,88,73,30.05,29.99,29.93,10,10,8,18,10,22,0.02,3,Rain,290
2013-5-8,75,66,58,70,66,58,100,93,77,30.13,30.09,30.03,10,10,7,15,5,,0.00,1,,263
2013-5-9,77,68,60,71,67,61,100,91,74,30.18,30.13,30.09,10,9,1,10,5,,0.00,1,Fog,227
2013-5-10,76,68,60,72,67,61,100,93,75,30.15,30.07,29.99,10,10,0,16,4,,0.00,2,Fog,165
2013-5-11,75,71,67,75,71,68,100,99,94,30.07,30.02,29.98,10,10,10,16,6,,0.18,4,Rain-Thunderstorm,209
2013-5-12,79,70,62,72,67,61,100,91,76,30.09,30.04,29.98,10,10,9,15,6,,0.02,1,,324
2013-5-13,77,68,59,60,54,50,83,64,47,30.24,30.18,30.10,10,10,10,15,8,18,0.00,1,,4
2013-5-14,76,64,52,61,57,52,99,75,53,30.31,30.24,30.19,10,10,10,13,3,,0.00,0,,233
2013-5-15,78,66,55,70,64,56,100,85,57,30.24,30.17,30.09,10,10,10,13,4,,0.00,1,,185
2013-5-16,80,72,63,72,66,64,100,90,61,30.12,30.06,30.02,10,9,4,14,3,,0.00,4,,160
2013-5-17,79,70,60,72,65,61,100,96,71,30.12,30.05,30.01,10,5,0,12,3,,0.00,1,Fog,132
2013-5-18,79,72,66,75,71,66,100,96,80,30.15,30.09,30.05,10,9,0,12,6,,0.00,2,Fog,182
2013-5-19,81,72,64,76,68,64,100,97,71,30.10,30.05,30.01,10,4,0,10,2,,0.00,1,Fog,163
2013-5-20,83,74,66,78,74,67,100,94,81,30.09,30.04,29.99,10,10,10,14,5,,0.00,2,,218
2013-5-21,85,75,65,79,72,66,100,95,73,30.05,29.99,29.94,10,9,1,16,4,,0.00,1,,167
2013-5-22,82,74,66,79,72,66,100,97,84,30.02,29.95,29.91,10,7,0,14,3,21,0.00,1,Fog,132
2013-5-23,85,78,71,81,77,71,100,95,80,30.04,30.00,29.96,10,10,10,16,7,,0.00,0,,284
2013-5-24,88,80,72,79,74,64,100,82,65,30.16,30.08,30.01,10,10,10,16,7,,0.00,1,,333
2013-5-25,84,74,64,72,64,56,100,74,56,30.25,30.19,30.14,10,10,10,13,7,,0.00,0,,116
2013-5-26,81,72,62,76,68,62,100,95,83,30.24,30.18,30.14,10,8,2,14,3,18,0.00,1,,131
2013-5-27,83,74,64,76,68,64,100,92,74,30.21,30.15,30.10,10,8,0,20,4,,0.00,2,Fog,131
2013-5-28,86,76,65,76,71,65,100,83,64,30.14,30.10,30.07,10,10,10,20,8,24,0.00,1,,123
2013-5-29,86,78,71,77,64,32,100,66,18,30.12,30.08,30.05,10,10,10,18,10,25,0.00,2,,114
2013-5-30,86,80,73,72,52,32,83,44,14,30.12,30.08,30.04,10,10,10,18,9,23,0.00,2,,112
2013-5-31,86,78,71,71,63,32,87,62,16,30.11,30.07,30.02,10,10,10,16,9,23,0.00,3,,115